Time;durP1;ratioP1;P1;durP2;ratioP2;P2;SDS_P1;SDS_P2;PMS_P1;PMS_P2;Temp;Humidity;BMP_temperature;BMP_pressure;BME280_temperature;BME280_humidity;BME280_pressure;Samples;Min_cycle;Max_cycle;Signal;HPM_P1;HPM_P2
2022/03/02 00:00:13;;;;;;;32.53;14.25;;;5.10;42.30;;;;;;4993363;28;20022;-70
2022/03/02 00:02:39;;;;;;;28.35;13.93;;;5.10;42.40;;;;;;4994280;28;20038;-71
2022/03/02 00:05:06;;;;;;;27.45;13.93;;;5.10;42.50;;;;;;4993833;28;20092;-69
2022/03/02 00:07:31;;;;;;;26.45;13.30;;;5.10;42.50;;;;;;4976187;28;20036;-71
2022/03/02 00:09:57;;;;;;;24.67;13.63;;;5.10;42.60;;;;;;4976716;28;20030;-70
2022/03/02 00:12:23;;;;;;;26.88;13.38;;;5.10;42.60;;;;;;4993722;28;20034;-71
2022/03/02 00:14:49;;;;;;;27.38;13.95;;;5.10;42.70;;;;;;4993863;28;20367;-69
2022/03/02 00:17:15;;;;;;;29.20;13.27;;;5.00;42.60;;;;;;4993284;28;20105;-65
2022/03/02 00:19:41;;;;;;;30.17;13.90;;;5.10;42.70;;;;;;4993602;28;20033;-69
2022/03/02 00:22:07;;;;;;;29.05;13.85;;;5.00;42.70;;;;;;4992639;28;20026;-71
2022/03/02 00:24:32;;;;;;;24.98;12.82;;;5.00;42.80;;;;;;4992925;28;20034;-71
2022/03/02 00:26:58;;;;;;;28.60;13.43;;;5.00;42.90;;;;;;4993370;28;20027;-70
2022/03/02 00:29:26;;;;;;;23.70;13.07;;;5.00;42.90;;;;;;4975645;28;20030;-71
2022/03/02 00:31:52;;;;;;;25.27;13.18;;;5.00;43.00;;;;;;4993159;28;20570;-68
2022/03/02 00:34:18;;;;;;;25.77;13.25;;;5.00;43.10;;;;;;4975436;28;20129;-69
2022/03/02 00:36:45;;;;;;;24.42;13.40;;;4.90;43.20;;;;;;4993119;28;20070;-69
2022/03/02 00:39:11;;;;;;;27.00;12.68;;;4.90;43.30;;;;;;4975869;28;20543;-69
2022/03/02 00:41:37;;;;;;;28.23;13.13;;;4.90;43.30;;;;;;4992874;28;20030;-69
2022/03/02 00:44:03;;;;;;;28.88;13.82;;;5.00;43.40;;;;;;4975804;28;20109;-70
2022/03/02 00:46:29;;;;;;;26.27;13.57;;;4.90;43.40;;;;;;4992649;28;20107;-71
2022/03/02 00:48:57;;;;;;;31.40;14.75;;;4.90;43.50;;;;;;4992366;28;20042;-70
2022/03/02 00:51:23;;;;;;;26.75;13.65;;;4.90;43.60;;;;;;4991331;28;20072;-70
2022/03/02 00:53:50;;;;;;;25.88;14.02;;;4.80;43.60;;;;;;4993479;28;20041;-69
2022/03/02 00:56:16;;;;;;;26.52;13.15;;;4.80;43.60;;;;;;4993329;28;20106;-70
2022/03/02 00:58:42;;;;;;;27.85;14.00;;;4.80;43.80;;;;;;4993027;28;20081;-71
2022/03/02 01:01:08;;;;;;;30.08;14.18;;;4.70;43.80;;;;;;4992823;28;20030;-71
2022/03/02 01:03:33;;;;;;;28.08;13.70;;;4.80;43.90;;;;;;4992946;28;20469;-69
2022/03/02 01:06:00;;;;;;;29.67;14.60;;;4.70;43.90;;;;;;4992398;28;20026;-69
2022/03/02 01:08:26;;;;;;;29.52;16.27;;;4.70;44.10;;;;;;4992463;28;20385;-70
2022/03/02 01:10:52;;;;;;;28.67;14.45;;;4.70;44.30;;;;;;4975588;28;20034;-69
2022/03/02 01:13:18;;;;;;;27.10;14.30;;;4.60;44.30;;;;;;4975384;28;20034;-68
2022/03/02 01:15:44;;;;;;;26.77;14.30;;;4.60;44.30;;;;;;4975519;28;20041;-70
2022/03/02 01:18:09;;;;;;;27.13;13.10;;;4.60;44.60;;;;;;4992769;28;20385;-70
2022/03/02 01:20:35;;;;;;;26.30;14.52;;;4.50;44.70;;;;;;4992237;28;20084;-68
2022/03/02 01:23:01;;;;;;;27.23;15.07;;;4.50;44.90;;;;;;4991990;28;20432;-69
2022/03/02 01:25:27;;;;;;;27.17;14.32;;;4.40;45.20;;;;;;4992112;28;20026;-69
2022/03/02 01:27:53;;;;;;;31.70;14.60;;;4.30;45.60;;;;;;4992886;28;20485;-70
2022/03/02 01:30:20;;;;;;;28.77;14.75;;;4.20;45.80;;;;;;4992836;28;20549;-70
2022/03/02 01:32:46;;;;;;;30.50;15.30;;;4.20;45.60;;;;;;4992390;28;20457;-70
2022/03/02 01:35:12;;;;;;;30.83;16.00;;;4.20;45.70;;;;;;4992426;28;20035;-70
2022/03/02 01:37:39;;;;;;;26.45;14.65;;;4.30;45.50;;;;;;4974703;28;20093;-70
2022/03/02 01:40:09;;;;;;;24.63;14.55;;;4.30;45.50;;;;;;4992635;28;20069;-70
2022/03/02 01:42:36;;;;;;;29.10;14.25;;;4.30;45.50;;;;;;4992132;28;20056;-69
2022/03/02 01:45:04;;;;;;;30.33;15.20;;;4.20;45.50;;;;;;4992822;28;20022;-70
2022/03/02 01:47:29;;;;;;;32.25;15.30;;;4.10;45.70;;;;;;4995869;28;20077;-70
2022/03/02 01:49:55;;;;;;;30.77;16.13;;;4.10;45.80;;;;;;4997141;28;20026;-70
2022/03/02 01:52:21;;;;;;;25.50;13.85;;;4.00;46.20;;;;;;4996413;28;20022;-67
2022/03/02 01:54:47;;;;;;;29.02;15.82;;;4.00;46.20;;;;;;4996640;28;20030;-70
2022/03/02 01:57:12;;;;;;;29.70;14.43;;;4.00;46.10;;;;;;4996598;28;20489;-69
2022/03/02 01:59:39;;;;;;;32.13;14.98;;;4.00;46.20;;;;;;4996074;28;20078;-70
2022/03/02 02:02:04;;;;;;;27.90;13.25;;;3.90;46.40;;;;;;4996721;28;20026;-69
2022/03/02 02:04:30;;;;;;;31.13;15.07;;;3.90;46.40;;;;;;4978525;28;20491;-69
2022/03/02 02:06:56;;;;;;;31.98;15.27;;;3.90;46.40;;;;;;4996190;28;20050;-69
2022/03/02 02:09:22;;;;;;;25.55;14.38;;;3.90;46.50;;;;;;4996166;28;20030;-67
2022/03/02 02:11:48;;;;;;;25.83;14.23;;;4.00;46.30;;;;;;4996263;28;20030;-71
2022/03/02 02:14:13;;;;;;;24.98;14.30;;;4.00;46.10;;;;;;4978465;28;20080;-70
2022/03/02 02:16:39;;;;;;;29.50;15.50;;;4.00;46.20;;;;;;4995569;28;20030;-70
2022/03/02 02:19:05;;;;;;;26.45;14.30;;;3.90;46.10;;;;;;4978896;28;20029;-70
2022/03/02 02:21:31;;;;;;;28.23;14.95;;;4.00;46.10;;;;;;4978103;28;20033;-69
2022/03/02 02:23:56;;;;;;;27.23;14.45;;;3.90;46.20;;;;;;4996114;28;20477;-69
2022/03/02 02:26:22;;;;;;;26.00;14.60;;;3.90;46.20;;;;;;4995731;28;20033;-70
2022/03/02 02:28:48;;;;;;;29.50;15.25;;;3.90;46.40;;;;;;4995461;28;20026;-69
2022/03/02 02:31:15;;;;;;;26.33;12.95;;;3.90;46.40;;;;;;4978431;28;20121;-70
2022/03/02 02:33:41;;;;;;;25.83;14.20;;;3.90;46.40;;;;;;4977510;28;20101;-69
2022/03/02 02:36:06;;;;;;;25.90;13.55;;;3.80;46.50;;;;;;4978395;28;20505;-69
2022/03/02 02:38:32;;;;;;;26.80;15.07;;;3.90;46.40;;;;;;4994970;28;20027;-70
2022/03/02 02:40:58;;;;;;;26.88;13.55;;;3.80;46.50;;;;;;4995524;28;20033;-70
2022/03/02 02:43:25;;;;;;;28.35;14.18;;;3.80;46.70;;;;;;4996019;28;20038;-70
2022/03/02 02:45:52;;;;;;;26.20;14.48;;;3.80;46.70;;;;;;4977929;28;20040;-69
2022/03/02 02:48:18;;;;;;;23.42;13.35;;;3.80;46.70;;;;;;4978031;28;20039;-70
2022/03/02 02:50:44;;;;;;;27.75;14.32;;;3.80;46.80;;;;;;4995055;28;20111;-70
2022/03/02 02:53:11;;;;;;;23.60;12.90;;;3.80;46.60;;;;;;4995229;28;20038;-69
2022/03/02 02:55:39;;;;;;;24.95;13.20;;;3.80;46.50;;;;;;4994646;28;20465;-70
2022/03/02 02:58:06;;;;;;;26.85;13.80;;;3.80;46.50;;;;;;4994196;28;20065;-69
2022/03/02 03:00:35;;;;;;;34.78;14.70;;;3.80;46.70;;;;;;4995072;28;20030;-68
2022/03/02 03:03:02;;;;;;;26.35;13.30;;;3.80;46.80;;;;;;4977414;28;20030;-69
2022/03/02 03:05:31;;;;;;;26.65;13.75;;;3.80;46.70;;;;;;4994423;28;20042;-68
2022/03/02 03:07:59;;;;;;;23.90;13.90;;;3.80;46.80;;;;;;4995232;28;20409;-69
2022/03/02 03:10:25;;;;;;;26.58;14.15;;;3.70;46.90;;;;;;4977699;28;20027;-69
2022/03/02 03:12:51;;;;;;;29.17;13.13;;;3.70;46.70;;;;;;4994538;28;20034;-70
2022/03/02 03:15:19;;;;;;;26.90;14.13;;;3.80;46.60;;;;;;4994885;28;20034;-70
2022/03/02 03:17:45;;;;;;;25.15;13.75;;;3.70;46.60;;;;;;4994505;28;20542;-68
2022/03/02 03:20:14;;;;;;;26.65;13.77;;;3.80;46.70;;;;;;4994292;28;20026;-70
2022/03/02 03:22:40;;;;;;;27.27;14.15;;;3.80;46.50;;;;;;4994717;28;20079;-69
2022/03/02 03:25:08;;;;;;;26.02;12.75;;;3.80;46.30;;;;;;4994502;28;20034;-68
2022/03/02 03:27:34;;;;;;;26.45;12.93;;;3.80;46.40;;;;;;4977214;28;20152;-68
2022/03/02 03:30:00;;;;;;;24.58;13.45;;;3.80;46.40;;;;;;4994575;28;20026;-69
2022/03/02 03:32:26;;;;;;;25.85;13.77;;;3.80;46.30;;;;;;4994398;28;20498;-69
2022/03/02 03:34:53;;;;;;;28.33;13.45;;;3.80;46.40;;;;;;4994081;28;20034;-68
2022/03/02 03:37:19;;;;;;;21.67;12.27;;;3.80;46.30;;;;;;4994436;28;20146;-71
2022/03/02 03:39:44;;;;;;;23.55;12.45;;;3.80;46.30;;;;;;4993811;28;20493;-69
2022/03/02 03:42:11;;;;;;;24.60;12.65;;;3.80;46.40;;;;;;4995029;28;20381;-70
2022/03/02 03:44:37;;;;;;;25.10;12.52;;;3.80;46.30;;;;;;4993894;28;20026;-68
2022/03/02 03:47:04;;;;;;;27.75;13.88;;;3.70;46.30;;;;;;4976772;28;20113;-70
2022/03/02 03:49:48;;;;;;;25.65;13.23;;;3.70;46.30;;;;;;4976350;28;20032;-67
2022/03/02 03:52:14;;;;;;;25.25;12.82;;;3.80;46.40;;;;;;4994767;28;20034;-70
2022/03/02 03:54:40;;;;;;;22.65;12.50;;;3.80;46.40;;;;;;4993305;28;20386;-71
2022/03/02 03:57:06;;;;;;;26.02;13.57;;;3.80;46.40;;;;;;4994126;28;20038;-71
2022/03/02 03:59:32;;;;;;;23.10;13.15;;;3.70;46.50;;;;;;4993559;28;20030;-68
2022/03/02 04:01:57;;;;;;;27.35;13.13;;;3.70;46.60;;;;;;4993861;28;20404;-71
2022/03/02 04:04:23;;;;;;;24.38;13.65;;;3.70;46.60;;;;;;4976885;28;20053;-70
2022/03/02 04:06:49;;;;;;;25.30;13.02;;;3.70;46.60;;;;;;4993257;28;20026;-70
2022/03/02 04:09:15;;;;;;;28.88;13.65;;;3.70;46.50;;;;;;4976205;28;20129;-71
2022/03/02 04:11:40;;;;;;;27.77;14.00;;;3.80;46.50;;;;;;4993677;28;20037;-69
2022/03/02 04:14:08;;;;;;;24.50;13.45;;;3.70;46.40;;;;;;4993582;28;20031;-69
2022/03/02 04:16:34;;;;;;;31.05;13.77;;;3.70;46.40;;;;;;4993312;28;20045;-69
2022/03/02 04:19:00;;;;;;;24.50;13.73;;;3.70;46.50;;;;;;4994475;28;20053;-69
2022/03/02 04:21:26;;;;;;;26.52;13.20;;;3.70;46.50;;;;;;4976396;28;20118;-70
2022/03/02 04:23:52;;;;;;;23.20;12.25;;;3.70;46.50;;;;;;4975888;28;20361;-69
2022/03/02 04:26:17;;;;;;;23.83;12.95;;;3.70;46.50;;;;;;4976158;28;20124;-69
2022/03/02 04:28:43;;;;;;;23.88;14.23;;;3.70;46.50;;;;;;4992897;28;20056;-70
2022/03/02 04:31:10;;;;;;;25.80;13.23;;;3.70;46.50;;;;;;4993738;28;20060;-70
2022/03/02 04:33:36;;;;;;;31.23;13.63;;;3.70;46.50;;;;;;4959542;28;20046;-69
2022/03/02 04:36:02;;;;;;;22.48;11.88;;;3.70;46.50;;;;;;4993437;28;20110;-69
2022/03/02 04:38:28;;;;;;;29.30;13.00;;;3.70;47.20;;;;;;4993402;28;20045;-69
2022/03/02 04:40:53;;;;;;;23.30;13.18;;;3.70;46.50;;;;;;4975397;28;20031;-71
2022/03/02 04:43:19;;;;;;;25.40;13.98;;;3.70;46.60;;;;;;4993274;28;20026;-69
2022/03/02 04:45:45;;;;;;;25.05;12.88;;;3.60;46.70;;;;;;4992647;28;20026;-70
2022/03/02 04:48:10;;;;;;;32.65;14.13;;;3.60;46.70;;;;;;4975949;28;20068;-69
2022/03/02 04:50:36;;;;;;;24.15;12.30;;;3.60;46.70;;;;;;4992690;28;20026;-69
2022/03/02 04:53:03;;;;;;;22.65;13.02;;;3.60;46.70;;;;;;4992848;28;20031;-68
2022/03/02 04:55:28;;;;;;;29.38;13.57;;;3.60;46.70;;;;;;4993009;28;20026;-70
2022/03/02 04:57:56;;;;;;;28.23;12.52;;;3.60;46.80;;;;;;4992398;28;20029;-69
2022/03/02 05:00:32;;;;;;;34.42;13.43;;;3.60;46.70;;;;;;4992604;28;20107;-70
2022/03/02 05:02:59;;;;;;;25.67;12.63;;;3.60;46.70;;;;;;4992236;28;20038;-68
2022/03/02 05:05:26;;;;;;;25.90;13.23;;;3.50;46.70;;;;;;4991910;28;20030;-70
2022/03/02 05:07:53;;;;;;;26.88;13.25;;;3.50;46.70;;;;;;4975101;28;20053;-68
2022/03/02 05:10:20;;;;;;;25.77;13.70;;;3.50;46.80;;;;;;4992724;28;20026;-70
2022/03/02 05:12:46;;;;;;;29.17;13.00;;;3.40;46.80;;;;;;4974970;28;20458;-67
2022/03/02 05:15:14;;;;;;;26.55;13.38;;;3.40;46.90;;;;;;4993310;28;20029;-69
2022/03/02 05:17:40;;;;;;;23.92;13.05;;;3.40;46.90;;;;;;4992104;28;20373;-70
2022/03/02 05:20:08;;;;;;;25.30;12.90;;;3.40;46.90;;;;;;4992539;28;20026;-69
2022/03/02 05:22:35;;;;;;;24.58;12.93;;;3.40;46.90;;;;;;4992514;28;20031;-70
2022/03/02 05:25:01;;;;;;;29.33;13.23;;;3.40;46.80;;;;;;4992617;28;20429;-70
2022/03/02 05:27:26;;;;;;;29.75;13.35;;;3.40;46.80;;;;;;4974992;28;20532;-68
2022/03/02 05:29:52;;;;;;;30.27;13.02;;;3.40;46.80;;;;;;4992033;28;20048;-69
2022/03/02 05:32:18;;;;;;;33.88;13.32;;;3.40;46.80;;;;;;4967937;28;20047;-70
2022/03/02 05:34:44;;;;;;;27.40;13.30;;;3.40;46.80;;;;;;4953176;29;20085;-71
2022/03/02 05:37:09;;;;;;;26.45;12.70;;;3.40;46.80;;;;;;4953967;29;20035;-70
2022/03/02 05:39:35;;;;;;;32.95;14.50;;;3.40;46.80;;;;;;4954154;29;20027;-69
2022/03/02 05:42:01;;;;;;;25.42;12.68;;;3.40;46.70;;;;;;4952127;29;20032;-70
2022/03/02 05:44:27;;;;;;;26.23;13.20;;;3.30;46.80;;;;;;4953705;29;20042;-69
2022/03/02 05:46:53;;;;;;;26.85;13.38;;;3.30;46.80;;;;;;4952196;29;20398;-70
2022/03/02 05:49:19;;;;;;;26.23;13.80;;;3.30;46.90;;;;;;4952473;29;20542;-69
2022/03/02 05:51:47;;;;;;;26.27;12.65;;;3.30;46.90;;;;;;4953223;29;20027;-68
2022/03/02 05:54:13;;;;;;;25.00;12.73;;;3.40;47.00;;;;;;4953797;29;20040;-68
2022/03/02 05:56:40;;;;;;;29.10;13.50;;;3.30;46.90;;;;;;4952989;29;20062;-65
2022/03/02 05:59:11;;;;;;;26.98;12.85;;;3.40;46.90;;;;;;4953563;29;20031;-70
2022/03/02 06:01:38;;;;;;;25.67;12.85;;;3.40;46.80;;;;;;4953556;29;20145;-69
2022/03/02 06:04:05;;;;;;;22.88;12.50;;;3.40;46.60;;;;;;4952081;29;20492;-66
2022/03/02 06:06:33;;;;;;;26.70;12.23;;;3.40;46.70;;;;;;4949302;29;20419;-67
2022/03/02 06:09:00;;;;;;;29.50;13.38;;;3.40;46.40;;;;;;4953481;29;20033;-70
2022/03/02 06:11:26;;;;;;;26.52;13.13;;;3.40;46.40;;;;;;4953911;29;20023;-72
2022/03/02 06:13:52;;;;;;;27.63;14.20;;;3.50;46.50;;;;;;4952893;29;20035;-67
2022/03/02 06:16:18;;;;;;;33.90;15.02;;;3.60;46.40;;;;;;4953889;29;20082;-70
2022/03/02 06:18:44;;;;;;;33.85;14.07;;;3.60;46.30;;;;;;4951660;29;20378;-70
2022/03/02 06:21:16;;;;;;;29.58;14.32;;;3.70;46.20;;;;;;4953498;29;20047;-70
2022/03/02 06:23:42;;;;;;;39.88;14.40;;;3.70;46.10;;;;;;4953495;29;20031;-67
2022/03/02 06:26:08;;;;;;;25.73;13.40;;;3.80;46.00;;;;;;4952180;29;20031;-68
2022/03/02 06:28:34;;;;;;;34.15;14.25;;;3.80;45.80;;;;;;4951743;29;20031;-69
2022/03/02 06:31:00;;;;;;;29.13;14.27;;;3.90;45.70;;;;;;4952585;29;20390;-69
2022/03/02 06:33:25;;;;;;;29.02;13.82;;;4.00;45.50;;;;;;4954464;28;20043;-69
2022/03/02 06:35:51;;;;;;;35.72;14.63;;;4.00;45.40;;;;;;4956272;29;20100;-67
2022/03/02 06:38:18;;;;;;;31.23;15.07;;;4.10;45.20;;;;;;4956743;28;20039;-69
2022/03/02 06:41:11;;;;;;;35.22;14.05;;;4.10;45.10;;;;;;4954906;29;20027;-69
2022/03/02 06:43:51;;;;;;;28.02;13.68;;;4.20;44.90;;;;;;4956598;29;20106;-69
2022/03/02 06:46:47;;;;;;;28.98;15.73;;;4.20;44.80;;;;;;4955522;29;20359;-69
2022/03/02 06:49:30;;;;;;;28.88;13.60;;;4.20;44.70;;;;;;4953907;29;20045;-70
2022/03/02 06:52:00;;;;;;;30.73;14.68;;;4.20;44.50;;;;;;4955028;29;20364;-70
2022/03/02 06:54:30;;;;;;;31.95;13.63;;;4.30;44.60;;;;;;4956662;29;20043;-69
2022/03/02 06:56:57;;;;;;;48.35;15.32;;;4.40;44.50;;;;;;4954752;29;20075;-70
2022/03/02 06:59:42;;;;;;;30.98;13.05;;;4.50;44.30;;;;;;4956302;28;20501;-70
2022/03/02 07:02:09;;;;;;;28.20;13.32;;;4.50;43.80;;;;;;4954780;29;20039;-69
2022/03/02 07:04:43;;;;;;;25.15;13.60;;;4.60;43.60;;;;;;4955920;29;20471;-70
2022/03/02 07:07:11;;;;;;;38.33;13.55;;;4.70;43.50;;;;;;4956150;29;20470;-70
2022/03/02 07:09:37;;;;;;;32.28;13.65;;;4.80;43.40;;;;;;4956370;29;20055;-70
2022/03/02 07:12:08;;;;;;;42.47;13.30;;;4.90;43.10;;;;;;4955969;29;20035;-70
2022/03/02 07:14:35;;;;;;;28.00;13.93;;;5.00;42.60;;;;;;4955324;28;20134;-70
2022/03/02 07:17:04;;;;;;;28.15;14.32;;;7.00;43.60;;;;;;4954010;29;20118;-70
2022/03/02 07:19:30;;;;;;;25.98;16.33;;;8.70;40.10;;;;;;4954584;29;20027;-69
2022/03/02 07:22:00;;;;;;;28.92;14.65;;;10.50;38.60;;;;;;4954936;29;20031;-69
2022/03/02 07:24:34;;;;;;;31.20;15.27;;;12.60;35.30;;;;;;4956027;28;20042;-67
2022/03/02 07:27:00;;;;;;;31.13;16.98;;;12.60;31.20;;;;;;4955206;28;20042;-69
2022/03/02 07:29:29;;;;;;;35.15;16.60;;;13.40;32.30;;;;;;4956158;29;20379;-68
2022/03/02 07:31:57;;;;;;;32.30;16.58;;;15.70;29.80;;;;;;4954590;28;20023;-67
2022/03/02 07:34:25;;;;;;;44.03;17.30;;;17.70;28.30;;;;;;4976574;28;20030;-71
2022/03/02 07:36:51;;;;;;;32.53;15.70;;;19.60;26.00;;;;;;4976743;28;20461;-71
2022/03/02 07:39:16;;;;;;;22.27;14.85;;;20.90;24.10;;;;;;4994217;28;20026;-72
2022/03/02 07:41:42;;;;;;;26.75;15.27;;;22.00;23.90;;;;;;4994155;28;20355;-71
2022/03/02 07:44:08;;;;;;;38.42;16.92;;;23.10;22.60;;;;;;4992734;28;20034;-73
2022/03/02 07:46:36;;;;;;;39.65;21.88;;;24.00;22.20;;;;;;4993655;28;20037;-71
2022/03/02 07:49:03;;;;;;;32.00;16.95;;;24.90;21.60;;;;;;4993110;28;20062;-70
2022/03/02 07:51:32;;;;;;;23.83;16.65;;;26.00;21.20;;;;;;4992171;28;20037;-71
2022/03/02 07:54:01;;;;;;;21.10;15.48;;;27.00;20.60;;;;;;4992773;28;20493;-71
2022/03/02 07:56:28;;;;;;;36.50;17.92;;;28.00;20.00;;;;;;4976474;28;20385;-72
2022/03/02 07:59:00;;;;;;;25.30;17.17;;;28.40;19.50;;;;;;4975468;28;20029;-70
2022/03/02 08:01:26;;;;;;;25.30;16.05;;;28.60;19.20;;;;;;4993720;28;20019;-72
2022/03/02 08:03:57;;;;;;;26.08;16.45;;;28.40;19.20;;;;;;4993344;28;20062;-70
2022/03/02 08:06:24;;;;;;;28.90;15.77;;;28.30;18.90;;;;;;4975651;28;20040;-71
2022/03/02 08:08:51;;;;;;;26.27;14.40;;;28.60;18.90;;;;;;4991675;28;20121;-69
2022/03/02 08:11:17;;;;;;;18.05;13.68;;;28.70;18.70;;;;;;4993491;28;20042;-71
2022/03/02 08:13:43;;;;;;;16.38;13.15;;;28.70;18.40;;;;;;4993543;28;20077;-72
2022/03/02 08:16:10;;;;;;;18.08;12.88;;;28.70;18.20;;;;;;4993745;28;20561;-72
2022/03/02 08:18:36;;;;;;;21.17;12.57;;;28.50;18.10;;;;;;4992399;28;20022;-71
2022/03/02 08:21:03;;;;;;;18.58;12.98;;;28.40;18.30;;;;;;4992865;28;20026;-73
2022/03/02 08:23:37;;;;;;;17.00;12.50;;;28.50;18.20;;;;;;4991970;28;20034;-72
2022/03/02 08:26:04;;;;;;;15.30;12.38;;;28.30;18.00;;;;;;4992609;28;20034;-70
2022/03/02 08:28:33;;;;;;;18.67;13.38;;;27.70;17.70;;;;;;4974234;28;20034;-72
2022/03/02 08:30:59;;;;;;;20.20;12.73;;;26.20;17.80;;;;;;4992559;28;20093;-74
2022/03/02 08:33:29;;;;;;;17.27;10.98;;;23.60;18.40;;;;;;4992873;28;20054;-71
2022/03/02 08:35:56;;;;;;;20.52;11.70;;;21.50;19.60;;;;;;4974476;28;20056;-73
2022/03/02 08:38:23;;;;;;;18.65;12.00;;;19.50;20.50;;;;;;4976128;28;20109;-67
2022/03/02 08:40:49;;;;;;;18.33;12.10;;;17.90;21.40;;;;;;4992574;28;20037;-70
2022/03/02 08:43:18;;;;;;;20.95;12.18;;;16.60;22.10;;;;;;4991622;28;20031;-68
2022/03/02 08:45:50;;;;;;;17.58;11.90;;;15.70;22.60;;;;;;4991509;28;20062;-69
2022/03/02 08:48:17;;;;;;;21.05;11.95;;;14.80;23.30;;;;;;4974727;28;20101;-74
2022/03/02 08:50:45;;;;;;;18.38;11.88;;;13.90;24.00;;;;;;4992618;28;20037;-71
2022/03/02 08:53:16;;;;;;;29.48;12.38;;;13.40;24.50;;;;;;4974469;28;20030;-69
2022/03/02 08:55:43;;;;;;;23.55;11.90;;;12.80;25.00;;;;;;4974237;28;20057;-71
2022/03/02 08:58:10;;;;;;;35.38;13.95;;;12.40;25.20;;;;;;4991543;28;20117;-69
2022/03/02 09:00:36;;;;;;;32.97;12.35;;;12.00;25.60;;;;;;4992362;28;20038;-69
2022/03/02 09:03:03;;;;;;;43.05;13.55;;;11.60;26.10;;;;;;4991599;28;20038;-71
2022/03/02 09:05:29;;;;;;;27.45;11.60;;;11.20;26.60;;;;;;4992192;28;20030;-69
2022/03/02 09:07:56;;;;;;;32.67;13.07;;;11.00;26.80;;;;;;4974191;28;20027;-68
2022/03/02 09:10:25;;;;;;;21.70;11.40;;;11.00;27.00;;;;;;4991233;28;20387;-71
2022/03/02 09:12:51;;;;;;;19.58;11.20;;;10.90;27.10;;;;;;4990938;28;20069;-68
2022/03/02 09:15:17;;;;;;;30.55;12.23;;;10.70;27.20;;;;;;4992195;28;20046;-70
2022/03/02 09:17:43;;;;;;;24.73;12.15;;;10.50;27.30;;;;;;4992375;28;20127;-69
2022/03/02 09:20:09;;;;;;;26.10;12.63;;;10.40;27.60;;;;;;4991960;28;20026;-72
2022/03/02 09:22:37;;;;;;;26.45;11.68;;;10.20;27.90;;;;;;4975033;28;20019;-71
2022/03/02 09:25:06;;;;;;;24.80;11.55;;;9.90;28.20;;;;;;4991976;28;20124;-68
2022/03/02 09:27:33;;;;;;;18.80;10.95;;;9.80;28.40;;;;;;4992371;28;20486;-69
2022/03/02 09:30:00;;;;;;;20.20;10.77;;;9.80;28.40;;;;;;4991700;28;20029;-67
2022/03/02 09:32:27;;;;;;;59.50;13.00;;;9.80;28.40;;;;;;4992214;28;20169;-68
2022/03/02 09:34:55;;;;;;;31.40;12.20;;;9.90;28.50;;;;;;4974872;28;20038;-70
2022/03/02 09:37:23;;;;;;;35.45;11.90;;;9.80;28.50;;;;;;4975054;28;20026;-69
2022/03/02 09:39:50;;;;;;;41.15;12.70;;;9.70;28.50;;;;;;4975165;28;20449;-68
2022/03/02 09:42:25;;;;;;;34.45;12.15;;;9.60;28.70;;;;;;4991817;28;20318;-69
2022/03/02 09:45:03;;;;;;;32.13;15.10;;;9.70;28.70;;;;;;4990636;28;20058;-69
2022/03/02 09:47:39;;;;;;;34.70;11.32;;;9.70;28.60;;;;;;4992336;28;20022;-70
2022/03/02 09:50:06;;;;;;;40.10;11.40;;;9.50;28.60;;;;;;4991596;28;20022;-72
2022/03/02 09:52:37;;;;;;;18.00;10.55;;;9.50;28.70;;;;;;4992183;28;20015;-69
2022/03/02 09:55:05;;;;;;;23.23;11.10;;;9.50;28.50;;;;;;4992133;28;20054;-68
2022/03/02 09:57:33;;;;;;;17.83;10.45;;;9.40;28.60;;;;;;4991660;28;20019;-69
2022/03/02 09:59:59;;;;;;;29.55;10.65;;;9.40;28.60;;;;;;4973487;28;20022;-69
2022/03/02 10:02:36;;;;;;;23.35;10.70;;;9.40;28.70;;;;;;4991284;28;20429;-68
2022/03/02 10:05:09;;;;;;;30.70;10.80;;;9.40;29.00;;;;;;4991268;28;20030;-70
2022/03/02 10:07:40;;;;;;;30.45;11.63;;;9.40;29.00;;;;;;4994171;28;20026;-69
2022/03/02 10:10:17;;;;;;;25.67;11.48;;;9.50;29.10;;;;;;4995697;28;20050;-72
2022/03/02 10:12:43;;;;;;;32.92;12.60;;;9.30;29.10;;;;;;4996137;28;20054;-70
2022/03/02 10:15:12;;;;;;;21.15;11.75;;;9.40;29.40;;;;;;4978159;28;20372;-70
2022/03/02 10:17:44;;;;;;;26.17;11.82;;;9.30;29.50;;;;;;4995878;28;20084;-71
2022/03/02 10:20:19;;;;;;;25.50;11.25;;;9.30;29.50;;;;;;4995458;28;20061;-69
2022/03/02 10:23:06;;;;;;;28.67;13.48;;;9.50;29.50;;;;;;4978070;28;20109;-69
2022/03/02 10:26:08;;;;;;;39.15;13.23;;;9.50;29.50;;;;;;4995726;28;20028;-70
2022/03/02 10:28:34;;;;;;;27.17;12.32;;;9.40;29.80;;;;;;4978162;28;20473;-72
2022/03/02 10:31:13;;;;;;;28.40;13.07;;;9.50;29.90;;;;;;4995432;28;20033;-70
2022/03/02 10:33:47;;;;;;;32.25;13.93;;;9.60;30.50;;;;;;4977570;28;20617;-69
2022/03/02 10:36:13;;;;;;;27.67;12.70;;;9.60;30.00;;;;;;4994941;28;20073;-68
2022/03/02 10:38:38;;;;;;;21.52;11.15;;;9.70;29.90;;;;;;4995477;28;20409;-69
2022/03/02 10:41:08;;;;;;;22.95;12.52;;;9.80;29.80;;;;;;4977422;28;20026;-69
2022/03/02 10:44:03;;;;;;;27.95;13.75;;;9.50;30.00;;;;;;4977826;28;20089;-72
2022/03/02 10:46:31;;;;;;;23.00;13.45;;;9.70;30.30;;;;;;4968222;28;20125;-72
2022/03/02 10:49:19;;;;;;;45.58;25.15;;;9.70;30.00;;;;;;4994842;28;20022;-71
2022/03/02 10:51:46;;;;;;;40.22;15.32;;;9.80;30.20;;;;;;4995216;28;20050;-70
2022/03/02 10:54:17;;;;;;;28.42;13.98;;;9.90;30.00;;;;;;4994580;28;20034;-69
2022/03/02 10:56:44;;;;;;;38.72;14.25;;;10.00;30.00;;;;;;4994903;28;20060;-68
2022/03/02 10:59:16;;;;;;;26.05;14.38;;;10.00;30.00;;;;;;4977218;28;20023;-74
2022/03/02 11:01:44;;;;;;;23.35;12.52;;;10.00;30.00;;;;;;4977535;28;20339;-71
2022/03/02 11:04:12;;;;;;;18.83;11.35;;;10.00;29.90;;;;;;4993893;28;20110;-69
2022/03/02 11:06:38;;;;;;;20.83;12.13;;;10.00;29.90;;;;;;4994409;28;20113;-71
2022/03/02 11:09:05;;;;;;;26.15;14.38;;;10.10;29.90;;;;;;4993241;28;20053;-70
2022/03/02 11:11:37;;;;;;;38.15;15.32;;;10.10;29.90;;;;;;4976617;28;20026;-68
2022/03/02 11:14:22;;;;;;;30.05;13.55;;;10.00;30.00;;;;;;4976090;28;20030;-69
2022/03/02 11:16:50;;;;;;;19.33;11.93;;;10.10;29.90;;;;;;4994038;28;20373;-69
2022/03/02 11:19:16;;;;;;;22.15;12.45;;;10.20;29.70;;;;;;4992551;28;20076;-70
2022/03/02 11:21:43;;;;;;;30.48;14.57;;;10.20;30.00;;;;;;4974791;28;20093;-69
2022/03/02 11:24:15;;;;;;;18.95;12.00;;;10.20;30.00;;;;;;4976332;28;20046;-70
2022/03/02 11:26:43;;;;;;;23.67;12.77;;;10.20;29.90;;;;;;4994472;28;20458;-70
2022/03/02 11:29:15;;;;;;;20.08;13.05;;;10.30;29.70;;;;;;4993096;28;20046;-69
2022/03/02 11:31:50;;;;;;;35.72;13.13;;;10.30;29.70;;;;;;4993404;28;20102;-70
2022/03/02 11:34:22;;;;;;;19.70;11.85;;;10.20;30.00;;;;;;4974782;28;20058;-69
2022/03/02 11:36:51;;;;;;;19.65;11.77;;;10.20;29.70;;;;;;4973738;28;20543;-68
2022/03/02 11:39:20;;;;;;;19.48;12.15;;;10.30;29.60;;;;;;4958656;28;20090;-68
2022/03/02 11:41:54;;;;;;;34.30;13.65;;;10.30;29.40;;;;;;4993027;28;20193;-68
2022/03/02 11:44:30;;;;;;;24.92;11.32;;;10.40;29.40;;;;;;4991761;28;20084;-69
2022/03/02 11:46:56;;;;;;;35.92;20.00;;;10.50;28.80;;;;;;4975173;28;20027;-70
2022/03/02 11:49:37;;;;;;;25.73;12.63;;;10.60;28.70;;;;;;4992180;28;20030;-70
2022/03/02 11:52:09;;;;;;;21.15;12.35;;;10.60;28.90;;;;;;4973790;28;20080;-71
2022/03/02 11:54:56;;;;;;;18.73;11.05;;;10.70;28.80;;;;;;4992571;28;20034;-70
2022/03/02 11:57:25;;;;;;;19.42;11.80;;;10.70;28.30;;;;;;4991447;28;20034;-71
2022/03/02 12:00:06;;;;;;;25.55;14.70;;;10.70;28.50;;;;;;4993081;28;20026;-69
2022/03/02 12:02:47;;;;;;;30.98;12.57;;;10.80;28.00;;;;;;4992645;28;20037;-70
2022/03/02 12:05:14;;;;;;;36.63;13.98;;;10.80;27.70;;;;;;4992087;28;20128;-71
2022/03/02 12:07:43;;;;;;;33.00;13.27;;;10.90;27.90;;;;;;4974766;28;20041;-69
2022/03/02 12:10:30;;;;;;;37.13;14.57;;;11.00;27.80;;;;;;4989732;28;20489;-71
2022/03/02 12:12:56;;;;;;;37.17;16.67;;;10.90;27.50;;;;;;4992180;28;20108;-69
2022/03/02 12:15:25;;;;;;;46.83;15.90;;;11.00;27.20;;;;;;4992049;28;20307;-68
2022/03/02 12:17:52;;;;;;;22.35;11.30;;;10.90;26.80;;;;;;4958870;28;20137;-69
2022/03/02 12:20:24;;;;;;;19.02;11.27;;;11.10;26.80;;;;;;4974257;28;20061;-70
2022/03/02 12:22:51;;;;;;;25.13;12.25;;;11.10;27.00;;;;;;4991212;28;20124;-71
2022/03/02 12:25:22;;;;;;;17.90;11.30;;;11.00;27.40;;;;;;4991641;28;20172;-69
2022/03/02 12:27:55;;;;;;;31.60;12.48;;;11.00;27.50;;;;;;4992321;28;20018;-71
2022/03/02 12:30:21;;;;;;;20.52;11.50;;;11.10;27.60;;;;;;4991399;28;20052;-69
2022/03/02 12:32:47;;;;;;;19.00;11.02;;;11.70;27.40;;;;;;4990256;28;20050;-72
2022/03/02 12:35:13;;;;;;;17.00;11.60;;;12.40;26.70;;;;;;4991851;28;20026;-71
2022/03/02 12:37:40;;;;;;;32.10;16.27;;;12.80;26.60;;;;;;4973389;28;20037;-69